Arlington, Nebraska
Current Conditions -  °F | °C
As of 6:55 AM on Friday 31 Oct 2014 (Local Time) from KFET Reporting Station
Clear Clear  
Wind Chill: 20°   Ceiling: Unl
Heat Index: 28°   Visibility: 10mi
Dew Point: 21°   Wind: 9mph
Humidity: 74%   Direction: 330°NNW
Pressure: 30.55"   Gusts: NA
Location:  41.45°N, 96.35°W
Report Text: KFET 311155Z AUTO 33008KT 10SM CLR M02/M06 A3055 RMK AO2 T10201060 10042 21020
Loading
Personal Weather Stations






























Interactive Weather Map
Tropical Storm Tracking
New forecast layout! Learn more

10-Day Weather Forecast

Advertisements
Track Severe Weather on mobile